Aérodrome :
LOGIN :

S'inscrire | Disclaimer

   EN    FR    IT 

 










Légende :    VFR   VFR Marginal   IFR   IFR Intensif   IFR Très Intensif
Visi : 
Plafond : 
>= 8 km
>= 3000ft
5 à 8 km
1000 à 3000 ft
1500m à 5 km
500 à 1000 ft
800 à 1500m
200 à 500 ft
< 800m
< 200 ft
Symboles :   Orages  Brouillard  Fortes neiges  Fortes précipitations  Vent > 20 kt
SIGMETs :   Divers  Orages  Givrage  Turbulence  Onde Orograph.  Cendres Volcan.







- Altitude de l'aérodrome : 1302 ft
- Code IATA : GNB
- Voir les cartes d'approche


LFLS - Grenoble / St. Geoirs

DERNIER METAR :
  • 230600Z AUTO 07002KT 9999 FEW032 SCT054 11/10 Q1019 TEMPO 2000 BR

METARs EXPIRÉS :
  • 230530Z AUTO 00000KT 9999 BKN036 BKN054 11/10 Q1019 TEMPO 2000 BR
  • 230500Z AUTO 00000KT 9999 FEW001 SCT054 10/10 Q1018 TEMPO 2000 BR
  • 230400Z AUTO 11002KT 1000 R09/1100U R27///// BR FEW040/// 11/11 Q1018

TAF TAF LFLS
Valide du 23 à 03h jusqu'au 24 à 03h UTC


230200Z 2303/2403 09006KT 9999 BKN030
PROB30
TEMPO 2303/2307 VRB02KT 2000 BR
BECMG 2307/2309 36007KT SCT025
BECMG 2317/2319 VRB02KT CAVOK
ATIS : +33 4 76 65 55 89
Pas de NOTAMs connus pour ce terrain.



MET'MAP, la Météo Aéronautique d'un coup d'oeil ! - Copyright ORBIFLY Décembre 2007 - Disclaimer

ORBIFLY MET'MAP TEAM :

Programmation & Développement : Alexandra Zaïnal
Conception & Développement : Baudouin d'Aumeries
Co-Programmation & Développement : Marc-Olivier Méhu
Soutien technique & logistique : Manuel Goepfert

Contact : metmap@orbifly.com




SOURCES & CREDITS :

   NOAA